createdAt,value
2018-06-20T00:00:47.410Z,7.30
2018-06-20T00:03:16.060Z,5.67
2018-06-20T00:05:44.933Z,11.47
2018-06-20T00:08:13.851Z,9.73
2018-06-20T00:10:42.465Z,14.00
2018-06-20T00:13:11.072Z,13.10
2018-06-20T00:15:41.252Z,9.73
2018-06-20T00:18:10.875Z,12.60
2018-06-20T00:20:39.900Z,8.13
2018-06-20T00:23:08.728Z,7.70
2018-06-20T00:25:37.459Z,8.30
2018-06-20T00:28:09.869Z,9.53
2018-06-20T00:30:39.456Z,6.80
2018-06-20T00:33:12.405Z,8.43
2018-06-20T00:35:42.030Z,6.50
2018-06-20T00:38:13.029Z,9.80
2018-06-20T00:40:41.632Z,6.43
2018-06-20T00:43:10.190Z,7.00
2018-06-20T00:45:40.435Z,4.27
2018-06-20T00:48:10.266Z,6.27
2018-06-20T00:50:40.131Z,8.47
2018-06-20T00:53:09.518Z,4.83
2018-06-20T00:55:51.578Z,7.97
2018-06-20T00:58:22.376Z,4.93
2018-06-20T01:00:50.997Z,5.97
2018-06-20T01:03:22.415Z,6.20
2018-06-20T01:05:51.104Z,6.50
2018-06-20T01:08:20.990Z,6.87
2018-06-20T01:10:49.620Z,8.17
2018-06-20T01:13:19.132Z,9.57
2018-06-20T01:15:49.533Z,8.50
2018-06-20T01:18:18.268Z,9.60
2018-06-20T01:20:47.785Z,8.10
2018-06-20T01:23:16.492Z,6.87
2018-06-20T01:25:49.295Z,7.10
2018-06-20T01:28:20.074Z,8.00
2018-06-20T01:30:49.794Z,10.03
2018-06-20T01:33:18.654Z,6.77
2018-06-20T01:35:47.446Z,10.40
2018-06-20T01:38:16.702Z,12.20
2018-06-20T01:40:45.569Z,10.50
2018-06-20T01:43:17.320Z,10.00
2018-06-20T01:45:46.027Z,9.40
2018-06-20T01:48:16.031Z,6.83
2018-06-20T01:50:45.578Z,10.83
2018-06-20T01:53:14.301Z,7.57
2018-06-20T01:55:43.014Z,11.97
2018-06-20T01:58:11.935Z,14.13
2018-06-20T02:00:42.947Z,15.30
2018-06-20T02:03:11.563Z,11.67
2018-06-20T02:05:40.164Z,9.57
2018-06-20T02:08:10.752Z,15.53
2018-06-20T02:10:39.386Z,11.07
2018-06-20T02:13:09.053Z,12.73
2018-06-20T02:15:37.741Z,13.17
2018-06-20T02:18:06.895Z,13.60
2018-06-20T02:20:35.649Z,13.27
2018-06-20T02:23:04.397Z,11.33
2018-06-20T02:25:33.826Z,11.67
2018-06-20T02:28:02.446Z,10.07
2018-06-20T02:30:31.527Z,11.37
2018-06-20T02:33:00.377Z,13.03
2018-06-20T02:35:29.123Z,11.87
2018-06-20T02:37:58.827Z,15.13
2018-06-20T02:40:29.507Z,13.37
2018-06-20T02:42:59.163Z,13.73
2018-06-20T02:45:27.851Z,9.23
2018-06-20T02:47:58.851Z,13.37
2018-06-20T02:50:30.876Z,11.07
2018-06-20T02:52:59.699Z,10.10
2018-06-20T02:55:28.397Z,10.40
2018-06-20T02:57:58.191Z,8.50
2018-06-20T03:00:27.580Z,11.07
2018-06-20T03:02:56.171Z,11.90
2018-06-20T03:05:25.160Z,9.33
2018-06-20T03:07:54.590Z,8.07
2018-06-20T03:10:23.208Z,9.70
2018-06-20T03:12:52.867Z,9.50
2018-06-20T03:15:23.193Z,10.43
2018-06-20T03:17:52.096Z,9.57
2018-06-20T03:20:21.189Z,10.50
2018-06-20T03:22:50.701Z,10.90
2018-06-20T03:25:20.273Z,8.90
2018-06-20T03:27:48.953Z,9.33
2018-06-20T03:30:17.609Z,10.10
2018-06-20T03:32:47.147Z,12.07
2018-06-20T03:35:16.204Z,9.50
2018-06-20T03:37:44.841Z,8.37
2018-06-20T03:40:14.027Z,14.33
2018-06-20T03:42:43.166Z,8.23
2018-06-20T03:45:13.931Z,216.12
2018-06-20T03:47:43.382Z,160.85
2018-06-20T03:50:12.113Z,91.70
2018-06-20T03:52:40.808Z,12.83
2018-06-20T03:55:10.556Z,519.23
2018-06-20T03:57:40.777Z,711.67
2018-06-20T04:00:10.179Z,752.65
2018-06-20T04:02:39.256Z,759.33
2018-06-20T04:05:08.785Z,740.35
2018-06-20T04:07:37.646Z,784.83
2018-06-20T04:10:08.509Z,817.77
2018-06-20T04:12:38.968Z,825.25
2018-06-20T04:15:07.912Z,839.40
2018-06-20T04:17:40.446Z,865.53
2018-06-20T04:20:09.306Z,899.67
2018-06-20T04:22:37.916Z,757.88
2018-06-20T04:25:07.002Z,754.67
2018-06-20T04:27:36.003Z,872.43
2018-06-20T04:30:04.929Z,805.18
2018-06-20T04:32:33.901Z,942.40
2018-06-20T04:35:03.018Z,1025.15
2018-06-20T04:37:33.858Z,888.73
2018-06-20T04:40:03.180Z,735.85
2018-06-20T04:42:33.089Z,593.90
2018-06-20T04:45:02.751Z,50.78
2018-06-20T04:47:31.467Z,24.75
2018-06-20T04:50:00.633Z,125.20
2018-06-20T04:52:30.227Z,65.03
2018-06-20T04:54:59.019Z,37.13
2018-06-20T04:57:27.701Z,66.25
2018-06-20T04:59:56.319Z,17.80
2018-06-20T05:02:25.204Z,70.85
2018-06-20T05:04:54.337Z,255.60
2018-06-20T05:07:25.754Z,402.40
2018-06-20T05:09:54.471Z,361.92
2018-06-20T05:12:22.943Z,274.07
2018-06-20T05:14:51.910Z,172.98
2018-06-20T05:17:21.687Z,576.60
2018-06-20T05:19:51.421Z,1216.10
2018-06-20T05:22:20.194Z,1216.33
2018-06-20T05:24:48.931Z,1223.48
2018-06-20T05:27:17.653Z,1222.08
2018-06-20T05:29:48.837Z,1226.93
2018-06-20T05:32:17.713Z,1188.10
2018-06-20T05:34:48.240Z,1020.55
2018-06-20T05:37:17.604Z,817.27
2018-06-20T05:39:47.298Z,734.27
2018-06-20T05:42:18.852Z,624.70
2018-06-20T05:44:48.502Z,417.55
2018-06-20T05:47:18.477Z,375.22
2018-06-20T05:49:47.575Z,433.10
2018-06-20T05:52:18.418Z,394.35
2018-06-20T05:54:48.288Z,352.82
2018-06-20T05:57:19.122Z,297.52
2018-06-20T05:59:48.835Z,966.57
2018-06-20T06:02:17.524Z,711.40
2018-06-20T06:04:46.198Z,455.20
2018-06-20T06:07:14.931Z,341.38
2018-06-20T06:09:43.869Z,301.98
2018-06-20T06:12:18.468Z,240.32
2018-06-20T06:14:48.550Z,366.82
2018-06-20T06:17:19.299Z,238.77
2018-06-20T06:19:47.986Z,529.60
2018-06-20T06:22:18.428Z,354.90
2018-06-20T06:24:49.810Z,440.10
2018-06-20T06:27:21.553Z,326.95
2018-06-20T06:29:50.349Z,259.12
2018-06-20T06:32:21.289Z,188.00
2018-06-20T06:34:51.541Z,366.40
2018-06-20T06:37:20.274Z,145.90
2018-06-20T06:39:48.962Z,95.97
2018-06-20T06:42:19.706Z,291.35
2018-06-20T06:44:50.140Z,972.75
2018-06-20T06:47:18.927Z,970.15
2018-06-20T06:49:47.465Z,941.35
2018-06-20T06:52:19.663Z,541.67
2018-06-20T06:54:51.566Z,451.45
2018-06-20T06:57:20.305Z,379.98
2018-06-20T06:59:49.806Z,87.25
2018-06-20T07:02:20.586Z,158.68
2018-06-20T07:04:49.642Z,177.30
2018-06-20T07:07:28.361Z,100.60
2018-06-20T07:09:59.121Z,227.78
2018-06-20T07:12:30.607Z,224.23
2018-06-20T07:15:01.276Z,161.87
2018-06-20T07:17:32.014Z,180.52
2018-06-20T07:20:02.082Z,101.83
2018-06-20T07:22:34.703Z,390.80
2018-06-20T07:25:05.230Z,260.45
2018-06-20T07:27:37.952Z,339.50
2018-06-20T07:30:07.166Z,102.15
2018-06-20T07:32:40.891Z,363.18
2018-06-20T07:35:09.209Z,387.82
2018-06-20T07:37:40.850Z,594.10
2018-06-20T07:40:10.375Z,638.70
2018-06-20T07:42:41.106Z,650.87
2018-06-20T07:45:09.801Z,701.13
2018-06-20T07:47:38.566Z,637.87
2018-06-20T07:50:09.516Z,602.08
2018-06-20T07:52:38.166Z,658.62
2018-06-20T07:55:06.887Z,662.13
2018-06-20T07:57:35.875Z,659.85
2018-06-20T08:00:20.357Z,554.87
2018-06-20T08:03:05.308Z,517.80
2018-06-20T08:05:42.516Z,535.02
2018-06-20T08:08:20.139Z,509.25
2018-06-20T08:10:57.135Z,476.80
2018-06-20T08:13:36.452Z,496.57
2018-06-20T08:16:10.550Z,502.58
2018-06-20T08:18:45.978Z,494.52
2018-06-20T08:21:14.602Z,690.52
2018-06-20T08:23:43.332Z,729.35
2018-06-20T08:26:12.125Z,743.25
2018-06-20T08:28:42.738Z,717.48
2018-06-20T08:31:11.668Z,422.07
2018-06-20T08:33:40.284Z,395.20
2018-06-20T08:36:08.941Z,448.78
2018-06-20T08:38:40.145Z,624.33
2018-06-20T08:41:13.196Z,636.28
2018-06-20T08:43:45.956Z,676.77
2018-06-20T08:46:21.969Z,714.13
2018-06-20T08:48:50.698Z,631.30
2018-06-20T08:51:19.312Z,615.50
2018-06-20T08:53:50.407Z,596.55
2018-06-20T08:56:21.775Z,642.35
2018-06-20T08:58:50.449Z,570.95
2018-06-20T09:01:23.078Z,559.22
2018-06-20T09:04:02.836Z,461.47
2018-06-20T09:06:38.341Z,560.27
2018-06-20T09:09:14.972Z,529.48
2018-06-20T09:13:58.080Z,583.30
2018-06-20T09:16:32.506Z,635.75
2018-06-20T09:19:13.000Z,637.05
2018-06-20T09:21:42.143Z,612.98
2018-06-20T09:24:10.916Z,620.95
2018-06-20T09:26:41.641Z,480.20
2018-06-20T09:29:11.326Z,536.02
2018-06-20T09:31:39.926Z,572.20
2018-06-20T09:34:11.442Z,688.80
2018-06-20T09:36:40.031Z,604.20
2018-06-20T09:39:10.579Z,693.65
2018-06-20T09:41:41.959Z,635.65
2018-06-20T09:44:12.716Z,625.97
2018-06-20T09:46:41.484Z,736.92
2018-06-20T09:49:15.215Z,745.27
2018-06-20T09:51:43.830Z,223.93
2018-06-20T09:54:13.244Z,197.65
2018-06-20T09:56:44.783Z,177.35
2018-06-20T09:59:21.030Z,194.97
2018-06-20T10:01:55.429Z,280.57
2018-06-20T10:04:30.647Z,314.87
2018-06-20T10:07:09.921Z,209.10
2018-06-20T10:09:47.226Z,293.80
2018-06-20T10:12:21.276Z,246.45
2018-06-20T10:14:55.646Z,408.13
2018-06-20T10:17:24.404Z,378.25
2018-06-20T10:19:54.128Z,546.42
2018-06-20T10:22:23.961Z,444.25
2018-06-20T10:24:52.720Z,408.65
2018-06-20T10:27:22.877Z,422.65
2018-06-20T10:29:51.695Z,273.07
2018-06-20T10:32:21.162Z,292.52
2018-06-20T10:34:50.917Z,367.40
2018-06-20T10:37:20.788Z,374.42
2018-06-20T10:39:51.606Z,375.57
2018-06-20T10:42:20.415Z,264.12
2018-06-20T10:44:50.244Z,260.27
2018-06-20T10:47:26.763Z,374.90
2018-06-20T10:49:55.708Z,321.90
2018-06-20T10:52:24.999Z,434.23
2018-06-20T10:54:55.176Z,468.43
2018-06-20T10:57:31.130Z,518.30
2018-06-20T11:00:05.021Z,458.27
2018-06-20T11:02:39.966Z,425.32
2018-06-20T11:05:13.845Z,453.23
2018-06-20T11:07:47.687Z,375.00
2018-06-20T11:10:22.159Z,551.60
2018-06-20T11:12:54.714Z,554.33
2018-06-20T11:15:23.801Z,412.23
2018-06-20T11:17:54.939Z,289.85
2018-06-20T11:20:29.174Z,406.15
2018-06-20T11:23:00.276Z,460.43
2018-06-20T11:25:29.372Z,457.77
2018-06-20T11:28:00.663Z,364.52
2018-06-20T11:30:34.481Z,356.57
2018-06-20T11:33:03.817Z,432.10
2018-06-20T11:35:32.504Z,426.77
2018-06-20T11:38:01.335Z,463.35
2018-06-20T11:40:30.628Z,357.43
2018-06-20T11:43:02.075Z,386.13
2018-06-20T11:45:37.805Z,417.45
2018-06-20T11:48:11.738Z,355.02
2018-06-20T11:50:40.567Z,303.73
2018-06-20T11:53:12.282Z,290.40
2018-06-20T11:55:46.389Z,275.22
2018-06-20T11:58:21.246Z,262.70
2018-06-20T12:01:00.506Z,349.07
2018-06-20T12:03:36.404Z,370.45
2018-06-20T12:06:12.013Z,385.93
2018-06-20T12:08:47.317Z,305.55
2018-06-20T12:11:21.973Z,264.73
2018-06-20T12:13:57.345Z,367.02
2018-06-20T12:16:27.314Z,189.60
2018-06-20T12:19:07.393Z,159.35
2018-06-20T12:21:42.757Z,181.83
2018-06-20T12:24:16.913Z,230.00
2018-06-20T12:26:52.713Z,290.40
2018-06-20T12:29:27.687Z,137.52
2018-06-20T12:32:02.682Z,157.50
2018-06-20T12:34:37.749Z,140.03
2018-06-20T12:37:16.710Z,150.10
2018-06-20T12:39:48.858Z,215.22
2018-06-20T12:42:24.267Z,162.20
2018-06-20T12:44:58.222Z,237.15
2018-06-20T12:47:32.645Z,195.60
2018-06-20T12:50:03.979Z,164.65
2018-06-20T12:52:32.705Z,125.22
2018-06-20T12:55:03.257Z,122.55
2018-06-20T12:57:31.975Z,98.70
2018-06-20T13:00:02.964Z,158.42
2018-06-20T13:02:31.887Z,170.70
2018-06-20T13:05:02.820Z,167.62
2018-06-20T13:07:31.481Z,167.22
2018-06-20T13:10:01.151Z,176.10
2018-06-20T13:12:30.193Z,106.57
2018-06-20T13:15:00.400Z,58.83
2018-06-20T13:17:29.810Z,124.87
2018-06-20T13:20:01.085Z,44.85
2018-06-20T13:22:33.982Z,153.87
2018-06-20T13:25:02.842Z,141.90
2018-06-20T13:27:38.043Z,272.47
2018-06-20T13:30:09.365Z,184.33
2018-06-20T13:32:43.575Z,209.07
2018-06-20T13:35:17.505Z,176.53
2018-06-20T13:37:51.540Z,184.13
2018-06-20T13:40:26.602Z,165.90
2018-06-20T13:43:01.907Z,215.20
2018-06-20T13:45:36.197Z,183.77
2018-06-20T13:48:11.183Z,197.53
2018-06-20T13:50:40.671Z,261.50
2018-06-20T13:53:09.512Z,279.83
2018-06-20T13:55:42.179Z,237.35
2018-06-20T13:58:14.518Z,251.05
2018-06-20T14:00:46.436Z,231.38
2018-06-20T14:03:33.069Z,259.75
2018-06-20T14:06:05.235Z,233.47
2018-06-20T14:08:34.252Z,166.37
2018-06-20T14:11:06.416Z,202.75
2018-06-20T14:13:36.658Z,152.43
2018-06-20T14:16:05.733Z,250.62
2018-06-20T14:18:36.526Z,363.00
2018-06-20T14:21:10.324Z,410.57
2018-06-20T14:23:39.296Z,402.77
2018-06-20T14:26:08.482Z,415.50
2018-06-20T14:28:37.290Z,379.02
2018-06-20T14:31:11.515Z,397.43
2018-06-20T14:33:48.283Z,416.83
2018-06-20T14:36:24.744Z,357.77
2018-06-20T14:39:01.564Z,412.55
2018-06-20T14:41:34.412Z,410.97
2018-06-20T14:44:04.600Z,408.75
2018-06-20T14:46:33.413Z,416.10
2018-06-20T14:49:02.042Z,378.33
2018-06-20T14:51:30.787Z,391.12
2018-06-20T14:54:00.232Z,399.80
2018-06-20T14:56:29.868Z,405.70
2018-06-20T14:58:58.596Z,390.80
2018-06-20T15:01:27.404Z,340.68
2018-06-20T15:03:56.064Z,212.27
2018-06-20T15:06:26.171Z,225.07
2018-06-20T15:08:54.900Z,169.53
2018-06-20T15:11:23.679Z,104.05
2018-06-20T15:13:52.565Z,120.33
2018-06-20T15:16:26.413Z,137.68
2018-06-20T15:18:59.183Z,66.93
2018-06-20T15:21:27.899Z,152.05
2018-06-20T15:23:56.661Z,120.50
2018-06-20T15:26:30.718Z,132.70
2018-06-20T15:29:04.562Z,118.57
2018-06-20T15:31:38.501Z,99.95
2018-06-20T15:34:12.528Z,80.50
2018-06-20T15:36:46.539Z,115.57
2018-06-20T15:39:15.410Z,102.75
2018-06-20T15:41:44.134Z,84.47
2018-06-20T15:44:13.757Z,48.13
2018-06-20T15:46:42.492Z,40.70
2018-06-20T15:49:11.234Z,14.87
2018-06-20T15:51:39.974Z,9.48
2018-06-20T15:54:08.838Z,9.40
2018-06-20T15:56:37.433Z,12.98
2018-06-20T15:59:06.262Z,27.97
2018-06-20T16:01:34.922Z,48.80
2018-06-20T16:04:03.669Z,49.38
2018-06-20T16:06:33.839Z,37.98
2018-06-20T16:09:07.729Z,32.23
2018-06-20T16:11:36.638Z,21.80
2018-06-20T16:14:05.473Z,20.08
2018-06-20T16:16:35.320Z,9.83
2018-06-20T16:20:07.502Z,4.62
2018-06-20T16:22:41.485Z,8.03
2018-06-20T16:25:16.600Z,8.73
2018-06-20T16:27:50.605Z,14.68
2018-06-20T16:30:27.639Z,21.87
2018-06-20T16:32:56.179Z,21.00
2018-06-20T16:35:25.402Z,15.20
2018-06-20T16:37:54.399Z,22.80
2018-06-20T16:40:23.073Z,17.82
2018-06-20T16:42:51.905Z,11.87
2018-06-20T16:45:20.501Z,35.83
2018-06-20T16:47:52.677Z,17.85
2018-06-20T16:50:21.476Z,13.90
2018-06-20T16:52:50.305Z,6.97
2018-06-20T16:55:19.160Z,6.95
2018-06-20T16:57:47.831Z,3.67
2018-06-20T17:00:16.474Z,7.12
2018-06-20T17:02:45.335Z,7.90
2018-06-20T17:05:14.415Z,3.85
2018-06-20T17:07:43.075Z,5.58
2018-06-20T17:10:11.694Z,5.60
2018-06-20T17:12:45.643Z,3.27
2018-06-20T17:15:19.560Z,3.85
2018-06-20T17:17:53.624Z,5.03
2018-06-20T17:20:27.501Z,3.45
2018-06-20T17:23:01.537Z,5.87
2018-06-20T17:25:32.525Z,4.58
2018-06-20T17:28:01.348Z,3.42
2018-06-20T17:30:31.060Z,3.30
2018-06-20T17:32:59.687Z,2.33
2018-06-20T17:35:28.394Z,3.00
2018-06-20T17:37:57.188Z,2.95
2018-06-20T17:40:25.848Z,5.30
2018-06-20T17:42:54.615Z,5.25
2018-06-20T17:45:23.319Z,4.00
2018-06-20T17:47:52.080Z,4.67
2018-06-20T17:50:20.802Z,4.85
2018-06-20T17:52:49.519Z,5.62
2018-06-20T17:57:07.369Z,2.73
2018-06-20T17:59:36.714Z,3.25
2018-06-20T18:02:05.736Z,2.83
2018-06-20T18:04:39.799Z,2.08
2018-06-20T18:07:13.677Z,4.37
2018-06-20T18:09:47.670Z,4.27
2018-06-20T18:12:21.473Z,2.60
2018-06-20T18:14:55.426Z,5.08
2018-06-20T18:17:26.156Z,4.65
2018-06-20T18:19:54.758Z,7.28
2018-06-20T18:22:23.437Z,6.70
2018-06-20T18:24:52.171Z,5.13
2018-06-20T18:27:20.814Z,6.40
2018-06-20T18:29:49.498Z,8.63
2018-06-20T18:32:18.160Z,141.85
2018-06-20T18:34:46.905Z,216.70
2018-06-20T18:37:15.326Z,332.00
2018-06-20T18:39:49.234Z,440.28
2018-06-20T18:42:17.884Z,492.57
2018-06-20T18:44:46.715Z,685.73
2018-06-20T18:47:20.583Z,691.92
2018-06-20T18:49:49.243Z,786.50
2018-06-20T18:52:17.971Z,885.88
2018-06-20T18:54:47.759Z,757.98
2018-06-20T18:57:21.683Z,745.50
2018-06-20T18:59:59.618Z,678.75
2018-06-20T19:02:33.467Z,541.67
2018-06-20T19:05:08.318Z,432.75
2018-06-20T19:07:42.193Z,442.65
2018-06-20T19:10:11.113Z,458.60
2018-06-20T19:12:41.753Z,504.62
2018-06-20T19:15:10.485Z,473.55
2018-06-20T19:17:39.434Z,489.65
2018-06-20T19:20:08.126Z,440.90
2018-06-20T19:22:37.442Z,516.67
2018-06-20T19:25:06.190Z,552.50
2018-06-20T19:27:34.950Z,381.47
2018-06-20T19:30:04.861Z,487.85
2018-06-20T19:32:33.796Z,790.67
2018-06-20T19:35:02.492Z,500.70
2018-06-20T19:37:31.229Z,412.38
2018-06-20T19:40:00.030Z,443.57
2018-06-20T19:42:28.946Z,666.80
2018-06-20T19:44:57.696Z,351.58
2018-06-20T19:47:26.571Z,855.18
2018-06-20T19:49:55.243Z,845.30
2018-06-20T19:52:24.160Z,750.67
2018-06-20T19:54:52.930Z,997.72
2018-06-20T19:57:21.702Z,858.60
2018-06-20T19:59:50.394Z,808.58
2018-06-20T20:02:20.129Z,822.33
2018-06-20T20:04:49.857Z,665.05
2018-06-20T20:07:20.557Z,861.70
2018-06-20T20:09:49.232Z,971.97
2018-06-20T20:12:17.925Z,938.75
2018-06-20T20:14:46.633Z,966.70
2018-06-20T20:17:15.389Z,684.20
2018-06-20T20:19:45.095Z,640.80
2018-06-20T20:22:13.764Z,631.95
2018-06-20T20:24:42.495Z,704.30
2018-06-20T20:27:11.179Z,725.25
2018-06-20T20:29:39.916Z,735.17
2018-06-20T20:32:09.529Z,629.50
2018-06-20T20:34:38.425Z,693.00
2018-06-20T20:37:07.586Z,690.60
2018-06-20T20:39:37.172Z,776.55
2018-06-20T20:42:06.079Z,738.75
2018-06-20T20:44:35.015Z,540.45
2018-06-20T20:47:03.993Z,630.63
2018-06-20T20:49:32.937Z,695.75
2018-06-20T20:52:01.917Z,495.48
2018-06-20T20:54:31.835Z,504.55
2018-06-20T20:57:00.642Z,501.80
2018-06-20T20:59:31.542Z,685.20
2018-06-20T21:02:00.942Z,776.60
2018-06-20T21:04:29.589Z,796.70
2018-06-20T21:06:58.377Z,909.20
2018-06-20T21:09:27.171Z,1037.75
2018-06-20T21:11:55.941Z,1034.48
2018-06-20T21:14:24.645Z,1042.80
2018-06-20T21:16:54.396Z,1024.15
2018-06-20T21:19:23.171Z,1024.53
2018-06-20T21:21:51.858Z,1016.20
2018-06-20T21:24:20.575Z,1008.75
2018-06-20T21:26:49.253Z,826.20
2018-06-20T21:29:17.906Z,1005.02
2018-06-20T21:31:47.639Z,1010.12
2018-06-20T21:34:16.353Z,984.87
2018-06-20T21:36:45.048Z,901.42
2018-06-20T21:39:13.785Z,932.23
2018-06-20T21:41:42.495Z,770.50
2018-06-20T21:44:11.161Z,709.83
2018-06-20T21:46:39.918Z,740.27
2018-06-20T21:49:08.697Z,855.70
2018-06-20T21:51:38.234Z,956.25
2018-06-20T21:54:07.157Z,876.65
2018-06-20T21:56:36.644Z,853.15
2018-06-20T21:59:05.384Z,517.70
2018-06-20T22:01:34.174Z,691.80
2018-06-20T22:04:02.856Z,729.90
2018-06-20T22:06:32.508Z,719.55
2018-06-20T22:09:01.499Z,610.50
2018-06-20T22:11:34.343Z,917.02
2018-06-20T22:14:03.069Z,771.97
2018-06-20T22:16:32.797Z,903.50
2018-06-20T22:19:01.479Z,775.10
2018-06-20T22:21:30.210Z,526.13
2018-06-20T22:23:59.212Z,553.02
2018-06-20T22:26:29.018Z,911.60
2018-06-20T22:28:58.714Z,775.98
2018-06-20T22:31:27.468Z,444.35
2018-06-20T22:33:56.155Z,421.70
2018-06-20T22:36:24.961Z,486.38
2018-06-20T22:38:53.709Z,441.23
2018-06-20T22:41:22.491Z,408.85
2018-06-20T22:43:51.345Z,385.73
2018-06-20T22:46:20.012Z,707.23
2018-06-20T22:48:48.691Z,764.97
2018-06-20T22:51:17.372Z,607.58
2018-06-20T22:53:46.058Z,592.53
2018-06-20T22:56:14.804Z,635.23
2018-06-20T22:58:43.660Z,516.17
2018-06-20T23:01:12.321Z,701.60
2018-06-20T23:03:41.105Z,629.97
2018-06-20T23:06:09.798Z,675.98
2018-06-20T23:08:40.016Z,612.75
2018-06-20T23:11:08.815Z,515.08
2018-06-20T23:13:38.172Z,710.93
2018-06-20T23:16:08.643Z,798.30
2018-06-20T23:18:37.384Z,780.98
2018-06-20T23:21:06.257Z,796.25
2018-06-20T23:23:34.955Z,833.02
2018-06-20T23:26:03.590Z,813.20
2018-06-20T23:28:32.267Z,827.10
2018-06-20T23:31:01.046Z,854.97
2018-06-20T23:33:29.758Z,770.02
2018-06-20T23:36:00.498Z,771.50
2018-06-20T23:38:29.838Z,836.25
2018-06-20T23:40:58.589Z,667.25
2018-06-20T23:43:27.293Z,694.00
2018-06-20T23:45:55.991Z,712.08
2018-06-20T23:48:25.287Z,716.27
2018-06-20T23:50:54.111Z,608.80
2018-06-20T23:53:23.036Z,546.80
2018-06-20T23:55:51.708Z,750.48
2018-06-20T23:58:20.502Z,736.05
